メインページ
METAR-TAF:

METAR-TAF

空港 :

フロリアノーポリス, サンタカタリーナ州, ブラジル

緯度: 27-40S, 経度: 048-33W, 海抜: 5m

現時点の気象観測

当レポートは27分前の21:00(UTC)に作成
の風 8kt
気温 21°C
湿度 73%
気圧 1016 hPa
視程10km以上
高度1300ftの雲はほとんどない
高度4000ftの千切れ雲あり
高度10000ftの千切れ雲あり

METAR: SBFL 202100Z 10008KT 9999 FEW013 BKN040 BKN100 21/16 Q1016

時間: 19:27 (21:27 UTC)

予報

当レポートは5時間57分前の15:30(UTC)に作成
予報は20日の 18時(UTC)から 21日の 18時(UTC)まで有効
東/南東の風 7kt
視程10km以上
高度3000ftの雲は散在している
21日の 00時(UTC)から 21日の 02時(UTC)まで徐々に
北/北西の風 5kt
高度3000ftの千切れ雲あり
確率 40% :
21日の 08時(UTC)から 21日の 14時(UTC)まで一時的に
視程: 8000m
高度1000ftの千切れ雲あり
21日の 14時(UTC)から 21日の 16時(UTC)まで徐々に
北/北東の風 7kt
高度3000ftの千切れ雲あり

TAF: SBFL 201530Z 2018/2118 12007KT 9999 SCT030 TX24/2018Z TN20/2108Z BECMG 2100/2102 33005KT BKN030 PROB40 TEMPO 2108/2114 8000 RA BKN010 BKN02 0 BECMG 2114/2116 03007KT BKN030 RMK PDW

4,000以上の空港の気象観測と天気予報(METAR報とTAF報)

利用可能な観測所は地図上に黄色い丸と赤い丸で示す。

丸の上にカーソルを重ねると観測所名を参照できる。

次にクリックすると気象観測と天気予報を参照できる。

マップの切り替え:黒色「×」印の緑ボタンをクリックして拡大、「-」印の緑ボタンをクリックして縮小、緑色の三角印をクリックして隣りの地図に切り替え


METAR-TAF: